createdAt,value
2018-04-18T00:00:06.218Z,14.12
2018-04-18T00:01:06.271Z,14.06
2018-04-18T00:02:05.934Z,14.06
2018-04-18T00:03:07.564Z,14.00
2018-04-18T00:04:06.816Z,14.00
2018-04-18T00:05:06.677Z,13.94
2018-04-18T00:06:07.001Z,13.94
2018-04-18T00:07:06.647Z,13.94
2018-04-18T00:08:06.658Z,13.94
2018-04-18T00:09:05.983Z,13.88
2018-04-18T00:10:05.600Z,14.00
2018-04-18T00:11:07.646Z,13.88
2018-04-18T00:12:06.875Z,13.69
2018-04-18T00:13:06.293Z,13.56
2018-04-18T00:14:05.888Z,13.38
2018-04-18T00:15:05.895Z,13.31
2018-04-18T00:16:06.084Z,13.25
2018-04-18T00:17:07.194Z,13.19
2018-04-18T00:18:06.600Z,13.19
2018-04-18T00:19:06.273Z,13.12
2018-04-18T00:20:06.197Z,13.44
2018-04-18T00:21:11.211Z,13.56
2018-04-18T00:22:06.687Z,13.62
2018-04-18T00:23:06.702Z,13.56
2018-04-18T00:24:06.649Z,13.56
2018-04-18T00:25:06.381Z,13.56
2018-04-18T00:26:06.188Z,13.44
2018-04-18T00:27:06.207Z,13.56
2018-04-18T00:28:05.852Z,13.56
2018-04-18T00:29:05.615Z,13.62
2018-04-18T00:30:07.511Z,13.69
2018-04-18T00:31:10.741Z,13.69
2018-04-18T00:32:06.687Z,13.69
2018-04-18T00:33:06.456Z,13.62
2018-04-18T00:34:11.204Z,13.56
2018-04-18T00:35:05.926Z,13.62
2018-04-18T00:36:06.651Z,13.62
2018-04-18T00:37:06.556Z,13.62
2018-04-18T00:38:06.819Z,13.88
2018-04-18T00:39:06.307Z,13.88
2018-04-18T00:40:06.661Z,13.81
2018-04-18T00:41:06.028Z,13.69
2018-04-18T00:42:06.290Z,13.62
2018-04-18T00:43:06.739Z,13.75
2018-04-18T00:44:05.711Z,13.75
2018-04-18T00:45:06.649Z,13.88
2018-04-18T00:46:06.673Z,13.81
2018-04-18T00:47:06.463Z,13.81
2018-04-18T00:48:07.247Z,13.69
2018-04-18T00:49:06.413Z,13.50
2018-04-18T00:50:06.902Z,13.44
2018-04-18T00:51:06.296Z,13.31
2018-04-18T00:52:06.408Z,13.19
2018-04-18T00:53:11.052Z,13.06
2018-04-18T00:54:06.620Z,13.00
2018-04-18T00:55:06.340Z,12.88
2018-04-18T00:56:05.958Z,12.81
2018-04-18T00:57:05.641Z,12.75
2018-04-18T00:58:06.677Z,12.81
2018-04-18T00:59:06.397Z,12.75
2018-04-18T01:00:12.144Z,12.88
2018-04-18T01:01:06.331Z,13.00
2018-04-18T01:02:05.654Z,12.94
2018-04-18T01:03:06.574Z,12.94
2018-04-18T01:04:06.774Z,12.94
2018-04-18T01:05:06.877Z,13.00
2018-04-18T01:06:06.038Z,13.00
2018-04-18T01:07:11.275Z,12.94
2018-04-18T01:08:06.677Z,12.94
2018-04-18T01:09:05.935Z,12.88
2018-04-18T01:10:06.439Z,12.94
2018-04-18T01:11:05.719Z,12.81
2018-04-18T01:12:06.331Z,12.69
2018-04-18T01:13:06.258Z,12.81
2018-04-18T01:14:05.909Z,12.75
2018-04-18T01:15:06.732Z,12.75
2018-04-18T01:16:06.538Z,12.81
2018-04-18T01:17:06.207Z,12.75
2018-04-18T01:18:07.349Z,12.69
2018-04-18T01:19:06.950Z,12.62
2018-04-18T01:20:05.666Z,12.56
2018-04-18T01:21:06.264Z,12.50
2018-04-18T01:22:06.006Z,12.44
2018-04-18T01:23:06.945Z,12.50
2018-04-18T01:24:06.618Z,12.44
2018-04-18T01:25:06.340Z,12.44
2018-04-18T01:26:05.592Z,12.38
2018-04-18T01:27:06.266Z,12.44
2018-04-18T01:28:05.646Z,12.38
2018-04-18T01:29:06.241Z,12.56
2018-04-18T01:30:06.051Z,12.56
2018-04-18T01:31:06.675Z,12.56
2018-04-18T01:32:06.349Z,12.62
2018-04-18T01:33:06.576Z,12.62
2018-04-18T01:34:07.239Z,12.62
2018-04-18T01:35:06.156Z,12.62
2018-04-18T01:36:05.660Z,12.69
2018-04-18T01:37:06.367Z,12.69
2018-04-18T01:38:06.357Z,12.75
2018-04-18T01:39:06.233Z,12.81
2018-04-18T01:40:06.124Z,12.81
2018-04-18T01:41:06.244Z,12.88
2018-04-18T01:42:11.558Z,12.81
2018-04-18T01:43:07.262Z,12.81
2018-04-18T01:44:05.950Z,12.75
2018-04-18T01:45:06.287Z,12.69
2018-04-18T01:46:05.995Z,12.56
2018-04-18T01:47:06.215Z,12.44
2018-04-18T01:48:06.742Z,12.38
2018-04-18T01:49:06.777Z,12.25
2018-04-18T01:50:06.367Z,12.19
2018-04-18T01:51:06.769Z,12.19
2018-04-18T01:52:06.598Z,12.19
2018-04-18T01:53:06.000Z,12.31
2018-04-18T01:54:06.222Z,12.38
2018-04-18T01:55:05.980Z,12.38
2018-04-18T01:56:06.373Z,12.44
2018-04-18T01:57:06.040Z,12.38
2018-04-18T01:58:06.718Z,12.38
2018-04-18T01:59:06.627Z,12.31
2018-04-18T02:00:06.689Z,12.19
2018-04-18T02:01:06.866Z,12.19
2018-04-18T02:02:05.633Z,12.12
2018-04-18T02:03:06.697Z,12.06
2018-04-18T02:04:07.105Z,12.00
2018-04-18T02:05:06.389Z,12.00
2018-04-18T02:06:06.004Z,11.94
2018-04-18T02:07:07.328Z,11.88
2018-04-18T02:08:06.889Z,11.81
2018-04-18T02:09:06.928Z,11.81
2018-04-18T02:10:07.358Z,11.81
2018-04-18T02:11:06.385Z,11.81
2018-04-18T02:12:06.390Z,11.81
2018-04-18T02:13:06.689Z,11.81
2018-04-18T02:14:07.180Z,11.75
2018-04-18T02:15:06.410Z,11.75
2018-04-18T02:16:06.130Z,11.69
2018-04-18T02:17:06.832Z,11.69
2018-04-18T02:18:06.622Z,11.62
2018-04-18T02:19:07.038Z,11.69
2018-04-18T02:20:06.566Z,11.69
2018-04-18T02:21:06.790Z,11.75
2018-04-18T02:22:07.328Z,11.69
2018-04-18T02:23:06.523Z,11.62
2018-04-18T02:24:05.705Z,11.62
2018-04-18T02:25:06.335Z,11.62
2018-04-18T02:26:06.721Z,11.62
2018-04-18T02:27:06.687Z,11.81
2018-04-18T02:28:06.532Z,11.88
2018-04-18T02:29:06.080Z,11.81
2018-04-18T02:30:06.356Z,11.94
2018-04-18T02:31:07.079Z,11.94
2018-04-18T02:32:06.660Z,11.94
2018-04-18T02:33:06.092Z,11.94
2018-04-18T02:34:05.701Z,12.19
2018-04-18T02:35:05.811Z,12.12
2018-04-18T02:36:06.425Z,12.12
2018-04-18T02:37:05.715Z,12.12
2018-04-18T02:38:06.351Z,12.06
2018-04-18T02:39:06.868Z,12.06
2018-04-18T02:40:05.712Z,12.12
2018-04-18T02:41:06.398Z,12.12
2018-04-18T02:42:06.806Z,12.06
2018-04-18T02:43:06.208Z,12.06
2018-04-18T02:44:06.717Z,12.00
2018-04-18T02:45:06.474Z,11.94
2018-04-18T02:46:06.653Z,11.81
2018-04-18T02:47:11.266Z,11.75
2018-04-18T02:48:06.833Z,11.69
2018-04-18T02:49:11.521Z,11.56
2018-04-18T02:50:07.187Z,11.50
2018-04-18T02:51:06.116Z,11.38
2018-04-18T02:52:06.204Z,11.38
2018-04-18T02:53:05.977Z,11.38
2018-04-18T02:54:06.626Z,11.62
2018-04-18T02:55:05.816Z,11.62
2018-04-18T02:56:06.273Z,11.69
2018-04-18T02:57:06.832Z,11.75
2018-04-18T02:58:06.432Z,11.75
2018-04-18T02:59:05.763Z,11.81
2018-04-18T03:00:06.802Z,11.75
2018-04-18T03:01:06.684Z,11.75
2018-04-18T03:02:05.669Z,11.69
2018-04-18T03:03:07.512Z,11.75
2018-04-18T03:04:06.504Z,11.75
2018-04-18T03:05:06.797Z,11.75
2018-04-18T03:06:06.183Z,11.75
2018-04-18T03:07:06.949Z,11.88
2018-04-18T03:08:05.731Z,11.62
2018-04-18T03:09:07.646Z,11.44
2018-04-18T03:10:06.850Z,11.44
2018-04-18T03:11:05.784Z,11.31
2018-04-18T03:12:06.473Z,11.31
2018-04-18T03:13:05.993Z,11.38
2018-04-18T03:14:06.056Z,11.31
2018-04-18T03:15:05.807Z,11.25
2018-04-18T03:16:06.713Z,11.25
2018-04-18T03:17:06.786Z,11.44
2018-04-18T03:18:06.794Z,11.44
2018-04-18T03:19:05.742Z,11.31
2018-04-18T03:20:05.807Z,11.31
2018-04-18T03:21:06.432Z,11.25
2018-04-18T03:22:05.807Z,11.25
2018-04-18T03:23:06.770Z,11.19
2018-04-18T03:24:10.967Z,11.19
2018-04-18T03:25:05.907Z,11.19
2018-04-18T03:26:06.812Z,11.12
2018-04-18T03:27:07.495Z,11.19
2018-04-18T03:28:06.445Z,11.31
2018-04-18T03:29:06.122Z,11.31
2018-04-18T03:30:06.468Z,11.38
2018-04-18T03:31:06.812Z,11.44
2018-04-18T03:32:06.565Z,11.44
2018-04-18T03:33:07.122Z,11.44
2018-04-18T03:34:06.377Z,11.44
2018-04-18T03:35:05.788Z,11.44
2018-04-18T03:36:06.973Z,11.50
2018-04-18T03:37:05.934Z,11.62
2018-04-18T03:38:06.648Z,11.69
2018-04-18T03:39:06.767Z,11.75
2018-04-18T03:40:07.410Z,11.81
2018-04-18T03:41:06.399Z,11.81
2018-04-18T03:42:05.919Z,11.75
2018-04-18T03:43:05.834Z,11.75
2018-04-18T03:44:06.858Z,11.62
2018-04-18T03:45:06.816Z,11.50
2018-04-18T03:46:06.839Z,11.44
2018-04-18T03:47:06.404Z,11.38
2018-04-18T03:48:06.463Z,11.31
2018-04-18T03:49:06.587Z,11.25
2018-04-18T03:50:06.336Z,11.19
2018-04-18T03:51:06.493Z,11.12
2018-04-18T03:52:06.103Z,11.12
2018-04-18T03:53:05.862Z,11.44
2018-04-18T03:54:05.803Z,11.62
2018-04-18T03:55:05.747Z,11.44
2018-04-18T03:56:06.470Z,11.44
2018-04-18T03:57:06.431Z,11.50
2018-04-18T03:58:05.799Z,11.50
2018-04-18T03:59:06.450Z,11.38
2018-04-18T04:00:06.192Z,11.25
2018-04-18T04:01:05.863Z,11.25
2018-04-18T04:02:05.857Z,11.19
2018-04-18T04:03:06.253Z,11.19
2018-04-18T04:04:05.775Z,11.19
2018-04-18T04:05:06.536Z,11.19
2018-04-18T04:06:06.179Z,11.12
2018-04-18T04:07:06.308Z,11.12
2018-04-18T04:08:06.682Z,11.06
2018-04-18T04:09:06.275Z,11.25
2018-04-18T04:10:07.409Z,11.44
2018-04-18T04:11:07.813Z,11.50
2018-04-18T04:12:05.789Z,11.50
2018-04-18T04:13:06.818Z,11.56
2018-04-18T04:14:07.010Z,11.56
2018-04-18T04:15:06.596Z,11.69
2018-04-18T04:16:05.813Z,11.69
2018-04-18T04:17:05.947Z,11.56
2018-04-18T04:18:07.129Z,11.56
2018-04-18T04:19:07.431Z,11.50
2018-04-18T04:20:05.820Z,11.56
2018-04-18T04:21:06.917Z,11.56
2018-04-18T04:22:06.802Z,11.50
2018-04-18T04:23:05.899Z,11.44
2018-04-18T04:24:11.134Z,11.44
2018-04-18T04:25:06.886Z,11.31
2018-04-18T04:26:06.862Z,11.19
2018-04-18T04:27:06.465Z,11.19
2018-04-18T04:28:06.823Z,11.31
2018-04-18T04:29:07.502Z,11.44
2018-04-18T04:30:06.266Z,11.75
2018-04-18T04:31:06.957Z,12.00
2018-04-18T04:32:06.329Z,12.06
2018-04-18T04:33:06.517Z,12.12
2018-04-18T04:34:05.840Z,11.94
2018-04-18T04:35:06.885Z,12.00
2018-04-18T04:36:06.212Z,12.00
2018-04-18T04:37:07.174Z,11.75
2018-04-18T04:38:06.874Z,11.62
2018-04-18T04:39:06.285Z,11.56
2018-04-18T04:40:07.021Z,11.50
2018-04-18T04:41:06.709Z,11.38
2018-04-18T04:42:06.864Z,11.38
2018-04-18T04:43:05.798Z,11.44
2018-04-18T04:44:06.522Z,11.56
2018-04-18T04:45:05.847Z,11.94
2018-04-18T04:46:06.896Z,12.00
2018-04-18T04:47:06.885Z,11.81
2018-04-18T04:48:06.855Z,11.69
2018-04-18T04:49:06.571Z,11.56
2018-04-18T04:50:05.912Z,11.69
2018-04-18T04:51:06.850Z,11.81
2018-04-18T04:52:05.921Z,11.94
2018-04-18T04:53:06.863Z,12.00
2018-04-18T04:54:06.794Z,12.06
2018-04-18T04:55:06.893Z,12.19
2018-04-18T04:56:07.060Z,12.31
2018-04-18T04:57:06.523Z,12.50
2018-04-18T04:58:06.435Z,12.69
2018-04-18T04:59:06.164Z,12.88
2018-04-18T05:00:06.213Z,13.12
2018-04-18T05:01:06.143Z,13.69
2018-04-18T05:02:06.165Z,14.06
2018-04-18T05:03:06.657Z,14.44
2018-04-18T05:04:06.170Z,14.75
2018-04-18T05:05:06.001Z,15.06
2018-04-18T05:06:06.130Z,15.31
2018-04-18T05:07:06.347Z,15.62
2018-04-18T05:08:05.940Z,15.75
2018-04-18T05:09:06.650Z,15.94
2018-04-18T05:10:06.919Z,16.06
2018-04-18T05:11:10.964Z,16.25
2018-04-18T05:12:05.863Z,16.44
2018-04-18T05:13:06.607Z,16.69
2018-04-18T05:14:06.534Z,16.94
2018-04-18T05:15:05.918Z,17.25
2018-04-18T05:16:13.349Z,17.38
2018-04-18T05:17:06.368Z,17.62
2018-04-18T05:18:05.927Z,17.81
2018-04-18T05:19:06.984Z,18.12
2018-04-18T05:20:05.640Z,18.25
2018-04-18T05:21:06.688Z,18.50
2018-04-18T05:22:07.192Z,18.81
2018-04-18T05:23:06.913Z,19.06
2018-04-18T05:24:06.836Z,19.31
2018-04-18T05:25:06.628Z,19.56
2018-04-18T05:26:06.498Z,19.81
2018-04-18T05:27:06.807Z,20.06
2018-04-18T05:28:06.490Z,20.31
2018-04-18T05:29:05.882Z,20.62
2018-04-18T05:30:06.189Z,20.88
2018-04-18T05:31:07.054Z,21.19
2018-04-18T05:32:06.255Z,21.38
2018-04-18T05:33:06.580Z,21.62
2018-04-18T05:34:05.829Z,21.88
2018-04-18T05:35:05.948Z,22.12
2018-04-18T05:36:11.755Z,22.44
2018-04-18T05:37:06.420Z,22.50
2018-04-18T05:38:06.575Z,22.69
2018-04-18T05:39:05.652Z,22.94
2018-04-18T05:40:06.600Z,23.12
2018-04-18T05:41:06.231Z,23.25
2018-04-18T05:42:06.413Z,23.44
2018-04-18T05:43:07.788Z,23.56
2018-04-18T05:44:11.307Z,23.56
2018-04-18T05:45:06.216Z,23.88
2018-04-18T05:46:06.101Z,24.00
2018-04-18T05:47:11.286Z,24.12
2018-04-18T05:48:06.193Z,24.25
2018-04-18T05:49:11.603Z,24.31
2018-04-18T05:50:07.185Z,24.44
2018-04-18T05:51:06.657Z,24.56
2018-04-18T05:52:05.771Z,24.69
2018-04-18T05:53:07.028Z,24.81
2018-04-18T05:54:06.605Z,25.00
2018-04-18T05:55:07.259Z,25.00
2018-04-18T05:56:06.620Z,25.00
2018-04-18T05:57:06.583Z,25.00
2018-04-18T05:58:07.202Z,25.00
2018-04-18T05:59:11.190Z,25.00
2018-04-18T06:00:05.953Z,25.00
2018-04-18T06:01:05.901Z,24.88
2018-04-18T06:02:06.340Z,24.88
2018-04-18T06:03:05.986Z,24.88
2018-04-18T06:04:06.414Z,25.00
2018-04-18T06:05:06.725Z,24.50
2018-04-18T06:06:06.431Z,24.69
2018-04-18T06:07:06.008Z,24.75
2018-04-18T06:08:05.955Z,24.69
2018-04-18T06:09:05.801Z,24.56
2018-04-18T06:10:05.900Z,24.38
2018-04-18T06:11:06.524Z,24.06
2018-04-18T06:12:06.282Z,23.81
2018-04-18T06:13:07.240Z,23.56
2018-04-18T06:14:06.292Z,23.31
2018-04-18T06:15:05.987Z,23.19
2018-04-18T06:16:05.874Z,23.12
2018-04-18T06:17:06.956Z,23.06
2018-04-18T06:18:07.002Z,23.12
2018-04-18T06:19:06.843Z,23.12
2018-04-18T06:20:06.536Z,23.19
2018-04-18T06:21:06.968Z,23.12
2018-04-18T06:22:06.483Z,23.06
2018-04-18T06:23:06.747Z,23.12
2018-04-18T06:24:06.557Z,23.19
2018-04-18T06:25:06.003Z,23.31
2018-04-18T06:26:05.920Z,23.38
2018-04-18T06:27:06.612Z,23.38
2018-04-18T06:28:10.554Z,23.56
2018-04-18T06:29:06.684Z,23.62
2018-04-18T06:30:10.791Z,23.62
2018-04-18T06:31:06.340Z,23.56
2018-04-18T06:32:06.737Z,23.56
2018-04-18T06:33:06.620Z,23.69
2018-04-18T06:34:07.033Z,23.69
2018-04-18T06:35:05.940Z,23.75
2018-04-18T06:36:05.633Z,23.81
2018-04-18T06:37:07.001Z,23.94
2018-04-18T06:38:07.006Z,24.00
2018-04-18T06:39:07.025Z,24.00
2018-04-18T06:40:06.016Z,24.00
2018-04-18T06:41:06.709Z,24.12
2018-04-18T06:42:05.746Z,24.19
2018-04-18T06:43:07.085Z,24.12
2018-04-18T06:44:06.294Z,24.25
2018-04-18T06:45:05.726Z,24.19
2018-04-18T06:46:06.899Z,24.31
2018-04-18T06:47:05.960Z,24.38
2018-04-18T06:48:06.651Z,24.38
2018-04-18T06:49:06.520Z,24.25
2018-04-18T06:50:05.964Z,24.31
2018-04-18T06:51:06.636Z,24.38
2018-04-18T06:52:06.250Z,24.38
2018-04-18T06:53:06.596Z,24.38
2018-04-18T06:54:06.349Z,24.50
2018-04-18T06:55:06.828Z,24.56
2018-04-18T06:56:07.034Z,24.69
2018-04-18T06:57:07.279Z,24.81
2018-04-18T06:58:10.983Z,24.81
2018-04-18T06:59:06.586Z,24.88
2018-04-18T07:00:06.671Z,24.88
2018-04-18T07:01:11.602Z,24.81
2018-04-18T07:02:06.769Z,24.88
2018-04-18T07:03:06.368Z,24.94
2018-04-18T07:04:06.290Z,25.00
2018-04-18T07:05:06.675Z,25.06
2018-04-18T07:06:05.780Z,25.06
2018-04-18T07:07:07.757Z,25.25
2018-04-18T07:08:06.650Z,25.31
2018-04-18T07:09:05.916Z,25.38
2018-04-18T07:10:06.055Z,25.44
2018-04-18T07:11:05.972Z,25.56
2018-04-18T07:12:06.964Z,25.56
2018-04-18T07:13:06.376Z,25.62
2018-04-18T07:14:06.467Z,25.69
2018-04-18T07:15:06.052Z,25.75
2018-04-18T07:16:06.593Z,25.81
2018-04-18T07:17:06.247Z,25.81
2018-04-18T07:18:06.451Z,25.88
2018-04-18T07:19:11.076Z,25.88
2018-04-18T07:20:05.859Z,25.88
2018-04-18T07:21:06.500Z,25.88
2018-04-18T07:22:07.584Z,25.94
2018-04-18T07:23:06.357Z,25.94
2018-04-18T07:24:05.985Z,26.00
2018-04-18T07:25:06.042Z,26.00
2018-04-18T07:26:06.820Z,26.06
2018-04-18T07:27:06.823Z,26.12
2018-04-18T07:28:06.057Z,26.12
2018-04-18T07:29:05.989Z,26.12
2018-04-18T07:30:06.035Z,26.19
2018-04-18T07:31:05.878Z,26.25
2018-04-18T07:32:06.393Z,26.31
2018-04-18T07:33:06.827Z,26.31
2018-04-18T07:34:06.205Z,26.31
2018-04-18T07:35:06.000Z,26.31
2018-04-18T07:36:06.688Z,26.38
2018-04-18T07:37:07.055Z,26.38
2018-04-18T07:38:06.725Z,26.50
2018-04-18T07:39:06.111Z,26.44
2018-04-18T07:40:07.571Z,26.50
2018-04-18T07:41:06.768Z,26.44
2018-04-18T07:42:06.594Z,26.38
2018-04-18T07:43:06.742Z,26.50
2018-04-18T07:44:07.136Z,26.56
2018-04-18T07:45:05.907Z,26.69
2018-04-18T07:46:06.081Z,26.69
2018-04-18T07:47:07.418Z,26.69
2018-04-18T07:48:06.431Z,26.81
2018-04-18T07:49:06.032Z,26.88
2018-04-18T07:50:07.073Z,27.00
2018-04-18T07:51:06.507Z,27.00
2018-04-18T07:52:07.101Z,26.94
2018-04-18T07:53:05.899Z,26.94
2018-04-18T07:54:06.702Z,27.00
2018-04-18T07:55:06.019Z,27.00
2018-04-18T07:56:07.070Z,26.94
2018-04-18T07:57:06.270Z,26.94
2018-04-18T07:58:06.979Z,26.94
2018-04-18T07:59:06.013Z,26.88
2018-04-18T08:00:06.716Z,26.88
2018-04-18T08:01:06.384Z,26.75
2018-04-18T08:02:06.404Z,26.69
2018-04-18T08:03:07.733Z,26.69
2018-04-18T08:04:06.704Z,26.69
2018-04-18T08:05:07.094Z,26.75
2018-04-18T08:06:06.706Z,26.69
2018-04-18T08:07:11.956Z,26.69
2018-04-18T08:08:05.979Z,26.75
2018-04-18T08:09:05.932Z,26.75
2018-04-18T08:10:06.040Z,26.69
2018-04-18T08:11:05.828Z,26.69
2018-04-18T08:12:06.335Z,26.69
2018-04-18T08:13:07.679Z,26.75
2018-04-18T08:14:06.786Z,26.81
2018-04-18T08:15:06.791Z,26.88
2018-04-18T08:16:06.795Z,26.81
2018-04-18T08:17:06.439Z,26.75
2018-04-18T08:18:05.922Z,26.81
2018-04-18T08:19:06.708Z,26.94
2018-04-18T08:20:06.300Z,27.00
2018-04-18T08:21:06.432Z,27.00
2018-04-18T08:22:06.425Z,26.94
2018-04-18T08:23:06.849Z,26.81
2018-04-18T08:24:06.118Z,26.75
2018-04-18T08:25:07.352Z,26.75
2018-04-18T08:26:06.153Z,26.62
2018-04-18T08:27:05.758Z,26.62
2018-04-18T08:28:06.475Z,26.44
2018-04-18T08:29:05.937Z,26.31
2018-04-18T08:30:05.800Z,26.31
2018-04-18T08:31:07.145Z,26.31
2018-04-18T08:32:07.078Z,26.31
2018-04-18T08:33:06.420Z,26.25
2018-04-18T08:34:06.271Z,26.31
2018-04-18T08:35:10.751Z,26.31
2018-04-18T08:36:06.650Z,26.25
2018-04-18T08:37:07.725Z,26.31
2018-04-18T08:38:05.996Z,26.31
2018-04-18T08:39:06.442Z,26.31
2018-04-18T08:40:06.128Z,26.25
2018-04-18T08:41:11.377Z,26.19
2018-04-18T08:42:05.998Z,26.19
2018-04-18T08:43:06.680Z,26.12
2018-04-18T08:44:06.077Z,26.12
2018-04-18T08:45:06.310Z,26.06
2018-04-18T08:46:06.755Z,26.00
2018-04-18T08:47:06.753Z,25.88
2018-04-18T08:48:07.265Z,25.88
2018-04-18T08:49:07.639Z,25.81
2018-04-18T08:50:05.965Z,25.88
2018-04-18T08:51:06.068Z,25.88
2018-04-18T08:52:05.946Z,25.81
2018-04-18T08:53:06.876Z,25.81
2018-04-18T08:54:06.802Z,25.88
2018-04-18T08:55:07.350Z,25.94
2018-04-18T08:56:06.707Z,26.00
2018-04-18T08:57:06.030Z,26.00
2018-04-18T08:58:06.109Z,26.00
2018-04-18T08:59:06.112Z,26.00
2018-04-18T09:00:06.460Z,26.12
2018-04-18T09:01:06.704Z,26.19
2018-04-18T09:02:06.048Z,26.00
2018-04-18T09:03:06.091Z,25.94
2018-04-18T09:04:07.748Z,25.94
2018-04-18T09:05:07.051Z,26.12
2018-04-18T09:06:06.465Z,26.12
2018-04-18T09:07:06.153Z,26.06
2018-04-18T09:08:06.082Z,26.00
2018-04-18T09:09:06.007Z,25.94
2018-04-18T09:10:07.411Z,25.88
2018-04-18T09:11:06.891Z,25.88
2018-04-18T09:12:06.484Z,25.81
2018-04-18T09:13:06.166Z,25.75
2018-04-18T09:14:06.076Z,25.81
2018-04-18T09:15:06.823Z,25.88
2018-04-18T09:16:06.031Z,25.81
2018-04-18T09:17:05.909Z,25.81
2018-04-18T09:18:06.167Z,25.81
2018-04-18T09:19:07.124Z,25.94
2018-04-18T09:20:07.120Z,26.06
2018-04-18T09:21:06.770Z,26.06
2018-04-18T09:22:11.456Z,26.00
2018-04-18T09:23:07.059Z,26.00
2018-04-18T09:24:06.091Z,26.00
2018-04-18T09:25:06.177Z,26.06
2018-04-18T09:26:05.963Z,26.00
2018-04-18T09:27:07.190Z,25.94
2018-04-18T09:28:06.108Z,25.94
2018-04-18T09:29:06.732Z,26.06
2018-04-18T09:30:06.598Z,26.19
2018-04-18T09:31:06.376Z,26.12
2018-04-18T09:32:06.789Z,26.00
2018-04-18T09:33:07.063Z,25.94
2018-04-18T09:34:06.095Z,25.88
2018-04-18T09:35:06.471Z,25.94
2018-04-18T09:36:10.811Z,26.00
2018-04-18T09:37:07.225Z,26.06
2018-04-18T09:38:06.478Z,26.00
2018-04-18T09:39:06.492Z,25.94
2018-04-18T09:40:05.947Z,25.81
2018-04-18T09:41:06.054Z,25.75
2018-04-18T09:42:07.057Z,25.69
2018-04-18T09:43:07.100Z,25.62
2018-04-18T09:44:06.987Z,25.56
2018-04-18T09:45:07.270Z,25.50
2018-04-18T09:46:06.723Z,25.62
2018-04-18T09:47:07.047Z,25.62
2018-04-18T09:48:06.073Z,25.62
2018-04-18T09:49:07.228Z,25.69
2018-04-18T09:50:06.777Z,25.69
2018-04-18T09:51:06.070Z,25.69
2018-04-18T09:52:06.237Z,25.81
2018-04-18T09:53:06.937Z,25.81
2018-04-18T09:54:06.110Z,25.81
2018-04-18T09:55:06.233Z,25.88
2018-04-18T09:56:10.903Z,25.94
2018-04-18T09:57:07.570Z,25.88
2018-04-18T09:58:05.826Z,25.75
2018-04-18T09:59:06.451Z,25.75
2018-04-18T10:00:06.017Z,25.75
2018-04-18T10:01:06.017Z,25.75
2018-04-18T10:02:06.182Z,25.69
2018-04-18T10:03:07.123Z,25.88
2018-04-18T10:04:06.437Z,26.00
2018-04-18T10:05:06.591Z,26.12
2018-04-18T10:06:06.019Z,26.25
2018-04-18T10:07:10.707Z,26.19
2018-04-18T10:08:06.939Z,26.12
2018-04-18T10:09:06.140Z,26.00
2018-04-18T10:10:06.526Z,26.12
2018-04-18T10:11:11.196Z,26.19
2018-04-18T10:12:07.162Z,26.06
2018-04-18T10:13:05.896Z,26.00
2018-04-18T10:14:07.716Z,25.94
2018-04-18T10:15:05.898Z,25.88
2018-04-18T10:16:06.547Z,25.81
2018-04-18T10:17:06.590Z,25.75
2018-04-18T10:18:05.885Z,25.75
2018-04-18T10:19:06.655Z,25.69
2018-04-18T10:20:06.205Z,25.62
2018-04-18T10:21:06.085Z,25.56
2018-04-18T10:22:06.553Z,25.56
2018-04-18T10:23:06.196Z,25.56
2018-04-18T10:24:06.283Z,25.62
2018-04-18T10:25:06.739Z,25.56
2018-04-18T10:26:06.835Z,25.44
2018-04-18T10:27:06.108Z,25.38
2018-04-18T10:28:07.037Z,25.31
2018-04-18T10:29:06.491Z,25.50
2018-04-18T10:30:05.838Z,25.56
2018-04-18T10:31:06.229Z,25.69
2018-04-18T10:32:06.026Z,25.62
2018-04-18T10:33:06.105Z,25.69
2018-04-18T10:34:06.097Z,25.81
2018-04-18T10:35:09.488Z,25.94
2018-04-18T10:36:06.163Z,25.88
2018-04-18T10:37:06.269Z,25.81
2018-04-18T10:38:06.298Z,25.81
2018-04-18T10:39:06.514Z,25.81
2018-04-18T10:40:10.701Z,25.75
2018-04-18T10:41:06.196Z,25.62
2018-04-18T10:42:06.134Z,25.50
2018-04-18T10:43:06.525Z,25.62
2018-04-18T10:44:06.631Z,25.75
2018-04-18T10:45:07.736Z,25.81
2018-04-18T10:46:07.822Z,25.81
2018-04-18T10:47:06.945Z,25.75
2018-04-18T10:48:07.323Z,25.75
2018-04-18T10:49:06.481Z,25.75
2018-04-18T10:50:06.538Z,25.94
2018-04-18T10:51:06.237Z,26.06
2018-04-18T10:52:05.698Z,25.94
2018-04-18T10:53:06.186Z,25.81
2018-04-18T10:54:06.997Z,25.69
2018-04-18T10:55:07.191Z,25.56
2018-04-18T10:56:06.632Z,25.50
2018-04-18T10:57:07.323Z,25.38
2018-04-18T10:58:06.195Z,25.38
2018-04-18T10:59:05.878Z,25.44
2018-04-18T11:00:07.633Z,25.50
2018-04-18T11:01:06.196Z,25.50
2018-04-18T11:02:06.090Z,25.50
2018-04-18T11:03:11.148Z,25.56
2018-04-18T11:04:06.908Z,25.69
2018-04-18T11:05:07.320Z,25.88
2018-04-18T11:06:06.834Z,25.88
2018-04-18T11:07:06.279Z,26.06
2018-04-18T11:08:10.781Z,26.06
2018-04-18T11:09:06.205Z,26.06
2018-04-18T11:10:06.579Z,25.94
2018-04-18T11:11:06.897Z,25.94
2018-04-18T11:12:07.413Z,25.88
2018-04-18T11:13:06.949Z,25.75
2018-04-18T11:14:06.143Z,25.88
2018-04-18T11:15:05.753Z,26.00
2018-04-18T11:16:06.189Z,26.00
2018-04-18T11:17:06.246Z,25.94
2018-04-18T11:18:11.379Z,25.94
2018-04-18T11:19:10.755Z,25.81
2018-04-18T11:20:05.923Z,25.81
2018-04-18T11:21:06.215Z,25.94
2018-04-18T11:22:06.242Z,25.88
2018-04-18T11:23:07.536Z,25.88
2018-04-18T11:24:05.917Z,25.94
2018-04-18T11:25:06.089Z,25.81
2018-04-18T11:26:06.099Z,25.69
2018-04-18T11:27:07.318Z,25.50
2018-04-18T11:28:05.883Z,25.50
2018-04-18T11:29:11.103Z,25.69
2018-04-18T11:30:06.173Z,25.75
2018-04-18T11:31:07.284Z,25.69
2018-04-18T11:32:06.287Z,25.62
2018-04-18T11:33:06.176Z,25.50
2018-04-18T11:34:06.859Z,25.50
2018-04-18T11:35:06.324Z,25.44
2018-04-18T11:36:06.297Z,25.38
2018-04-18T11:37:06.459Z,25.31
2018-04-18T11:38:11.507Z,25.44
2018-04-18T11:39:06.587Z,25.50
2018-04-18T11:40:06.331Z,25.44
2018-04-18T11:41:06.325Z,25.25
2018-04-18T11:42:06.596Z,25.00
2018-04-18T11:43:11.073Z,25.00
2018-04-18T11:44:05.707Z,24.94
2018-04-18T11:45:07.180Z,24.94
2018-04-18T11:46:10.682Z,24.94
2018-04-18T11:47:06.312Z,24.81
2018-04-18T11:48:07.500Z,24.81
2018-04-18T11:49:06.370Z,24.81
2018-04-18T11:50:06.329Z,24.81
2018-04-18T11:51:05.716Z,24.81
2018-04-18T11:52:06.140Z,24.94
2018-04-18T11:53:06.245Z,25.00
2018-04-18T11:54:07.304Z,25.06
2018-04-18T11:55:07.678Z,25.12
2018-04-18T11:56:06.246Z,25.19
2018-04-18T11:57:06.277Z,25.38
2018-04-18T11:58:06.337Z,25.44
2018-04-18T11:59:06.571Z,25.44
2018-04-18T12:00:06.165Z,25.44
2018-04-18T12:01:06.187Z,25.44
2018-04-18T12:02:06.225Z,25.38
2018-04-18T12:03:07.051Z,25.50
2018-04-18T12:04:06.328Z,25.50
2018-04-18T12:05:06.344Z,25.38
2018-04-18T12:06:07.286Z,25.44
2018-04-18T12:07:06.592Z,25.50
2018-04-18T12:08:10.917Z,25.62
2018-04-18T12:09:06.091Z,25.56
2018-04-18T12:10:11.289Z,25.69
2018-04-18T12:11:07.747Z,25.75
2018-04-18T12:12:06.137Z,25.69
2018-04-18T12:13:06.316Z,25.56
2018-04-18T12:14:07.243Z,25.44
2018-04-18T12:15:06.631Z,25.25
2018-04-18T12:16:07.001Z,25.38
2018-04-18T12:17:07.465Z,25.38
2018-04-18T12:18:07.030Z,25.38
2018-04-18T12:19:06.478Z,25.25
2018-04-18T12:20:06.702Z,25.25
2018-04-18T12:21:06.960Z,25.38
2018-04-18T12:22:06.313Z,25.56
2018-04-18T12:23:06.301Z,25.75
2018-04-18T12:24:05.742Z,25.81
2018-04-18T12:25:06.779Z,25.81
2018-04-18T12:26:06.517Z,25.81
2018-04-18T12:27:07.793Z,25.62
2018-04-18T12:28:07.005Z,25.50
2018-04-18T12:29:10.979Z,25.50
2018-04-18T12:30:06.648Z,25.69
2018-04-18T12:31:06.456Z,25.81
2018-04-18T12:32:07.338Z,25.75
2018-04-18T12:33:05.730Z,25.81
2018-04-18T12:34:06.994Z,25.88
2018-04-18T12:35:06.292Z,25.94
2018-04-18T12:36:10.950Z,26.00
2018-04-18T12:37:10.708Z,25.81
2018-04-18T12:38:06.411Z,25.88
2018-04-18T12:39:06.228Z,25.88
2018-04-18T12:40:06.148Z,25.81
2018-04-18T12:41:06.169Z,25.69
2018-04-18T12:42:06.737Z,25.56
2018-04-18T12:43:07.375Z,25.56
2018-04-18T12:44:06.987Z,25.69
2018-04-18T12:45:07.657Z,25.75
2018-04-18T12:46:06.878Z,25.75
2018-04-18T12:47:06.655Z,25.56
2018-04-18T12:48:05.928Z,25.44
2018-04-18T12:49:06.075Z,25.31
2018-04-18T12:50:06.195Z,25.25
2018-04-18T12:51:07.308Z,25.12
2018-04-18T12:52:07.104Z,25.06